Terminal Aerodrome Forecast
Issued by NWS

Home | Current Version | Previous Version | Text Only | Print | Product List | Glossary On
Versions: 1 2 3 4 5 6 7 8 9 10 11 12 13 14 15
000
FTUS43 KEAX 220500
TAFSTJ
TAF
KSTJ 220520Z 2206/2306 19008KT P6SM SCT100
     FM220900 19007KT P6SM VCTS SCT050CB BKN100
     FM221400 20008KT P6SM SCT100 SCT150
     FM230000 16006KT P6SM SCT060 BKN100=

USA.gov is the U.S. government's official web portal to all federal, state and local government web resources and services.